createdAt,value
2022-10-13T03:55:19.437Z,101423.48
2022-10-13T03:58:43.490Z,101423.21
2022-10-13T04:02:07.287Z,101418.92
2022-10-13T04:05:33.507Z,101416.85
2022-10-13T04:08:57.799Z,101422.74
2022-10-13T04:12:21.499Z,101420.46
2022-10-13T04:15:44.775Z,101420.64
2022-10-13T04:19:11.793Z,101415.93
2022-10-13T04:22:35.792Z,101411.25
2022-10-13T04:25:58.991Z,101414.98
2022-10-13T04:29:23.217Z,101409.95
2022-10-13T04:32:48.920Z,101410.14
2022-10-13T04:36:15.141Z,101412.89
2022-10-13T04:39:38.348Z,101414.15
2022-10-13T04:43:01.707Z,101410.55
2022-10-13T04:46:26.746Z,101404.50
2022-10-13T04:49:50.904Z,101404.56
2022-10-13T04:53:19.072Z,101401.02
2022-10-13T04:56:45.005Z,101400.73
2022-10-13T05:00:10.679Z,101399.58
2022-10-13T05:03:34.412Z,101394.89
2022-10-13T05:07:18.060Z,101392.56
2022-10-13T05:10:41.311Z,101389.44
2022-10-13T05:14:04.685Z,101388.61
2022-10-13T05:17:35.101Z,101386.76
2022-10-13T05:21:07.952Z,101388.94
2022-10-13T05:24:36.430Z,101382.34
2022-10-13T05:27:59.853Z,101380.92
2022-10-13T05:31:25.977Z,101377.27
2022-10-13T05:34:50.172Z,101379.03
2022-10-13T05:38:13.273Z,101378.92
2022-10-13T05:41:38.711Z,101373.27
2022-10-13T05:45:03.749Z,101369.41
2022-10-13T05:48:27.910Z,101362.59
2022-10-13T05:51:54.282Z,101362.31
2022-10-13T05:55:19.638Z,101354.54
2022-10-13T05:58:47.146Z,101358.10
2022-10-13T06:02:14.676Z,101358.98
2022-10-13T06:05:40.082Z,101356.39
2022-10-13T06:09:03.544Z,101351.70
2022-10-13T06:12:26.694Z,101354.94
2022-10-13T06:15:52.738Z,101351.05
2022-10-13T06:19:17.000Z,101348.65
2022-10-13T06:22:40.307Z,101345.44
2022-10-13T06:26:03.735Z,101345.46
2022-10-13T06:29:28.353Z,101334.39
2022-10-13T06:32:53.256Z,101328.81
2022-10-13T06:36:16.507Z,101326.56
2022-10-13T06:39:40.432Z,101328.23
2022-10-13T06:43:04.363Z,101327.20
2022-10-13T06:46:28.873Z,101325.17
2022-10-13T06:49:52.292Z,101322.72
2022-10-13T06:53:15.764Z,101322.03
2022-10-13T06:56:39.020Z,101316.95
2022-10-13T07:00:08.908Z,101322.52
2022-10-13T07:03:32.644Z,101319.94
2022-10-13T07:06:56.509Z,101320.15
2022-10-13T07:10:19.772Z,101318.23
2022-10-13T07:13:46.633Z,101318.77
2022-10-13T07:17:12.449Z,101317.54
2022-10-13T07:20:36.055Z,101319.38
2022-10-13T07:23:59.522Z,101315.06
2022-10-13T07:27:25.156Z,101314.15
2022-10-13T07:30:49.215Z,101308.10
2022-10-13T07:34:12.505Z,101307.03
2022-10-13T07:37:36.111Z,101304.76
2022-10-13T07:41:01.644Z,101304.16
2022-10-13T07:44:25.990Z,101300.80
2022-10-13T07:47:49.327Z,101297.04
2022-10-13T07:51:13.362Z,101292.40
2022-10-13T07:54:36.785Z,101296.49
2022-10-13T07:58:03.155Z,101294.15
2022-10-13T08:01:29.590Z,101292.73
2022-10-13T08:04:53.272Z,101288.95
2022-10-13T08:08:16.551Z,101291.94
2022-10-13T08:11:40.168Z,101287.96
2022-10-13T08:15:06.334Z,101280.48
2022-10-13T08:18:30.725Z,101282.47
2022-10-13T08:21:59.623Z,101281.50
2022-10-13T08:25:23.538Z,101283.39
2022-10-13T08:29:02.852Z,101284.59
2022-10-13T08:32:26.729Z,101279.17
2022-10-13T08:35:51.307Z,101278.27
2022-10-13T08:39:15.455Z,101276.71
2022-10-13T08:42:43.984Z,101274.16
2022-10-13T08:46:10.571Z,101269.65
2022-10-13T08:49:34.688Z,101261.22
2022-10-13T08:53:00.732Z,101259.79
2022-10-13T08:56:27.487Z,101252.85
2022-10-13T08:59:53.186Z,101248.12
2022-10-13T09:03:23.995Z,101247.41
2022-10-13T09:06:52.838Z,101247.47
2022-10-13T09:10:18.881Z,101245.69
2022-10-13T09:13:42.557Z,101245.16
2022-10-13T09:17:17.930Z,101244.43
2022-10-13T09:20:41.997Z,101237.55
2022-10-13T09:24:11.688Z,101231.61
2022-10-13T09:27:40.793Z,101227.98
2022-10-13T09:31:11.587Z,101229.64
2022-10-13T09:34:37.586Z,101225.98
2022-10-13T09:38:10.142Z,101224.11
2022-10-13T09:41:34.056Z,101224.52
2022-10-13T09:45:00.745Z,101220.00
2022-10-13T09:48:29.782Z,101213.33
2022-10-13T09:51:58.886Z,101207.67
2022-10-13T09:55:32.844Z,101202.98
2022-10-13T09:59:05.664Z,101195.89
2022-10-13T10:02:33.857Z,101193.54
2022-10-13T10:06:00.617Z,101191.83
2022-10-13T10:09:34.635Z,101190.55
2022-10-13T10:12:57.919Z,101192.46
2022-10-13T10:16:30.625Z,101185.34
2022-10-13T10:20:03.357Z,101180.66
2022-10-13T10:23:37.566Z,101176.48
2022-10-13T10:27:05.678Z,101172.47
2022-10-13T10:30:31.054Z,101165.81
2022-10-13T10:34:06.184Z,101157.73
2022-10-13T10:37:55.107Z,101157.05
2022-10-13T10:41:36.013Z,101152.89
2022-10-13T10:45:03.091Z,101152.71
2022-10-13T10:48:32.704Z,101152.02
2022-10-13T10:51:55.384Z,101148.67
2022-10-13T10:55:25.408Z,101143.73
2022-10-13T10:59:00.358Z,101134.22
2022-10-13T11:02:42.431Z,101130.88
2022-10-13T11:06:21.422Z,101122.39
2022-10-13T11:10:16.970Z,101121.83
2022-10-13T11:13:52.047Z,101115.11
2022-10-13T11:17:18.980Z,101105.55
2022-10-13T11:20:58.819Z,101102.75
2022-10-13T11:24:39.821Z,101095.27
2022-10-13T11:28:42.830Z,101087.66
2022-10-13T11:32:55.183Z,101086.70
2022-10-13T11:36:50.824Z,101079.77
2022-10-13T11:40:24.918Z,101075.02
2022-10-13T11:43:55.675Z,101069.00
2022-10-13T11:47:43.558Z,101064.38
2022-10-13T11:51:20.313Z,101058.83
2022-10-13T11:54:50.864Z,101059.85
2022-10-13T11:58:18.674Z,101060.35
2022-10-13T12:01:45.082Z,101056.29
2022-10-13T12:05:22.080Z,101052.88
2022-10-13T12:08:49.736Z,101053.58
2022-10-13T12:12:16.987Z,101056.73
2022-10-13T12:15:43.062Z,101047.15
2022-10-13T12:19:20.290Z,101038.41
2022-10-13T12:22:49.016Z,101032.73
2022-10-13T12:26:17.498Z,101034.62
2022-10-13T12:29:41.009Z,101031.14
2022-10-13T12:33:19.119Z,101025.77
2022-10-13T12:36:45.396Z,101023.45
2022-10-13T12:40:15.138Z,101019.58
2022-10-13T12:43:39.485Z,101017.88
2022-10-13T12:47:03.815Z,101018.15
2022-10-13T12:50:37.970Z,101014.73
2022-10-13T12:54:05.625Z,101013.56
2022-10-13T12:57:35.359Z,101016.62
2022-10-13T13:01:08.322Z,101015.55
2022-10-13T13:04:40.987Z,101015.39
2022-10-13T13:08:19.862Z,101012.36
2022-10-13T13:11:43.242Z,101005.81
2022-10-13T13:15:36.925Z,101003.35
2022-10-13T13:19:00.266Z,101002.65
2022-10-13T13:22:25.530Z,100996.48
2022-10-13T13:25:59.314Z,100989.43
2022-10-13T13:29:22.999Z,100987.81
2022-10-13T13:32:46.718Z,100984.26
2022-10-13T13:36:17.690Z,100980.55
2022-10-13T13:39:42.828Z,100978.95
2022-10-13T13:43:08.051Z,100981.73
2022-10-13T13:46:31.926Z,100982.24
2022-10-13T13:49:56.517Z,100981.00
2022-10-13T13:53:20.081Z,100981.70
2022-10-13T13:56:43.603Z,100980.61
2022-10-13T14:00:10.274Z,100971.52
2022-10-13T14:03:35.211Z,100967.61
2022-10-13T14:07:01.077Z,100963.92
2022-10-13T14:10:26.044Z,100963.21
2022-10-13T14:13:49.525Z,100961.04
2022-10-13T14:17:20.662Z,100960.28
2022-10-13T14:20:44.115Z,100956.05
2022-10-13T14:24:09.721Z,100952.33
2022-10-13T14:27:36.024Z,100950.55
2022-10-13T14:30:59.765Z,100951.52
2022-10-13T14:34:23.583Z,100946.14
2022-10-13T14:37:46.911Z,100948.52
2022-10-13T14:41:10.231Z,100945.96
2022-10-13T14:44:34.015Z,100938.69
2022-10-13T14:47:57.318Z,100937.04
2022-10-13T14:51:20.984Z,100941.58
2022-10-13T14:54:45.188Z,100944.12
2022-10-13T14:58:09.078Z,100944.16
2022-10-13T15:01:33.150Z,100943.48
2022-10-13T15:04:57.403Z,100940.33
2022-10-13T15:08:20.901Z,100941.98
2022-10-13T15:11:45.659Z,100939.20
2022-10-13T15:15:10.942Z,100944.38
2022-10-13T15:18:35.894Z,100942.67
2022-10-13T15:21:59.704Z,100942.35
2022-10-13T15:25:23.584Z,100942.02
2022-10-13T15:28:49.098Z,100939.02
2022-10-13T15:32:17.514Z,100939.02
2022-10-13T15:35:48.109Z,100937.59
2022-10-13T15:39:11.595Z,100942.49
2022-10-13T15:42:34.962Z,100940.15
2022-10-13T15:46:02.175Z,100931.95
2022-10-13T15:49:26.049Z,100927.83
2022-10-13T15:52:49.727Z,100924.06
2022-10-13T15:56:12.929Z,100923.80
2022-10-13T15:59:36.228Z,100922.66
2022-10-13T16:02:59.480Z,100922.05
2022-10-13T16:06:22.790Z,100921.97
2022-10-13T16:09:46.068Z,100921.34
2022-10-13T16:13:13.572Z,100926.14
2022-10-13T16:16:36.748Z,100924.65
2022-10-13T16:20:00.603Z,100923.86
2022-10-13T16:23:24.253Z,100924.62
2022-10-13T16:26:47.443Z,100924.52
2022-10-13T16:30:12.723Z,100925.80
2022-10-13T16:33:36.553Z,100927.09
2022-10-13T16:36:59.738Z,100922.41
2022-10-13T16:40:23.074Z,100915.80
2022-10-13T16:43:47.830Z,100913.41
2022-10-13T16:47:13.627Z,100912.08
2022-10-13T16:50:40.674Z,100909.20
2022-10-13T16:54:05.014Z,100910.67
2022-10-13T16:57:30.781Z,100905.86
2022-10-13T17:01:01.271Z,100910.33
2022-10-13T17:04:24.873Z,100908.30
2022-10-13T17:07:48.717Z,100907.13
2022-10-13T17:11:17.711Z,100908.61
2022-10-13T17:14:41.006Z,100903.55
2022-10-13T17:18:04.705Z,100904.48
2022-10-13T17:21:28.232Z,100902.95
2022-10-13T17:24:51.500Z,100895.45
2022-10-13T17:28:15.240Z,100895.85
2022-10-13T17:31:38.579Z,100896.08
2022-10-13T17:35:02.355Z,100888.94
2022-10-13T17:38:25.669Z,100891.42
2022-10-13T17:41:48.970Z,100892.34
2022-10-13T17:45:13.102Z,100892.02
2022-10-13T17:48:37.026Z,100891.21
2022-10-13T17:52:00.931Z,100897.36
2022-10-13T17:55:24.713Z,100895.13
2022-10-13T17:58:49.009Z,100898.50
2022-10-13T18:02:13.977Z,100904.66
2022-10-13T18:05:42.087Z,100903.48
2022-10-13T18:09:07.784Z,100908.08
2022-10-13T18:12:31.397Z,100904.77
2022-10-13T18:15:55.213Z,100905.52
2022-10-13T18:19:19.972Z,100906.95
2022-10-13T18:22:43.319Z,100905.58
2022-10-13T18:26:11.204Z,100907.35
2022-10-13T18:31:16.161Z,100906.17
2022-10-13T18:34:42.953Z,100907.10
2022-10-13T18:38:09.639Z,100897.66
2022-10-13T18:41:39.670Z,100901.54
2022-10-13T18:45:07.855Z,100898.46
2022-10-13T18:48:36.931Z,100896.80
2022-10-13T18:52:04.550Z,100895.16
2022-10-13T18:55:31.344Z,100891.41
2022-10-13T18:59:00.266Z,100889.06
2022-10-13T19:02:27.970Z,100885.96
2022-10-13T19:05:54.819Z,100884.27
2022-10-13T19:09:24.223Z,100885.02
2022-10-13T19:12:50.947Z,100885.73
2022-10-13T19:16:23.116Z,100884.86
2022-10-13T19:19:49.942Z,100885.38
2022-10-13T19:23:18.262Z,100879.27
2022-10-13T19:26:44.903Z,100881.88
2022-10-13T19:30:14.269Z,100883.11
2022-10-13T19:33:44.668Z,100879.59
2022-10-13T19:37:11.901Z,100881.14
2022-10-13T19:40:42.476Z,100883.08
2022-10-13T19:44:09.460Z,100882.70
2022-10-13T19:47:38.059Z,100882.84
2022-10-13T19:51:06.592Z,100882.45
2022-10-13T19:54:35.863Z,100879.80
2022-10-13T19:58:02.767Z,100880.11
2022-10-13T20:01:29.657Z,100878.13
2022-10-13T20:04:57.428Z,100873.15
2022-10-13T20:08:24.408Z,100870.79
2022-10-13T20:11:52.110Z,100864.92
2022-10-13T20:15:18.923Z,100862.73
2022-10-13T20:18:46.860Z,100864.41
2022-10-13T20:22:13.762Z,100866.59
2022-10-13T20:25:40.731Z,100864.73
2022-10-13T20:29:07.385Z,100864.29
2022-10-13T20:32:34.619Z,100863.48
2022-10-13T20:36:03.299Z,100863.38
2022-10-13T20:39:30.126Z,100861.52
2022-10-13T20:42:56.722Z,100867.04
2022-10-13T20:46:25.149Z,100867.11
2022-10-13T20:49:52.720Z,100867.91
2022-10-13T20:53:19.508Z,100862.98
2022-10-13T20:56:49.392Z,100863.98
2022-10-13T21:00:16.999Z,100867.46
2022-10-13T21:03:44.365Z,100869.73
2022-10-13T21:07:11.766Z,100866.74
2022-10-13T21:10:39.781Z,100861.25
2022-10-13T21:14:09.684Z,100858.48
2022-10-13T21:17:42.521Z,100856.81
2022-10-13T21:21:12.392Z,100854.94
2022-10-13T21:24:41.185Z,100852.54
2022-10-13T21:28:08.695Z,100853.98
2022-10-13T21:31:36.950Z,100849.77
2022-10-13T21:35:04.141Z,100847.89
2022-10-13T21:38:30.929Z,100845.69
2022-10-13T21:41:57.740Z,100845.58
2022-10-13T21:45:26.308Z,100845.84
2022-10-13T21:48:56.612Z,100845.24
2022-10-13T21:52:23.654Z,100843.96
2022-10-13T21:55:50.338Z,100845.48
2022-10-13T21:59:17.024Z,100841.63
2022-10-13T22:02:43.594Z,100841.22
2022-10-13T22:06:18.295Z,100840.85
2022-10-13T22:09:45.919Z,100834.52
2022-10-13T22:13:12.699Z,100835.02
2022-10-13T22:16:42.193Z,100836.11
2022-10-13T22:20:10.535Z,100834.59
2022-10-13T22:23:37.641Z,100831.16
2022-10-13T22:27:04.259Z,100827.33
2022-10-13T22:30:31.085Z,100823.02
2022-10-13T22:33:58.347Z,100822.55
2022-10-13T22:37:24.922Z,100823.27
2022-10-13T22:40:51.564Z,100821.73
2022-10-13T22:44:18.800Z,100818.77
2022-10-13T22:47:45.391Z,100821.56
